createdAt,value
2022-10-23T00:00:54.403Z,9.56
2022-10-23T00:01:54.422Z,9.56
2022-10-23T00:02:54.533Z,9.58
2022-10-23T00:03:54.525Z,9.63
2022-10-23T00:04:54.555Z,9.66
2022-10-23T00:05:54.598Z,9.69
2022-10-23T00:06:54.643Z,9.69
2022-10-23T00:07:54.675Z,9.72
2022-10-23T00:08:54.695Z,9.77
2022-10-23T00:09:54.735Z,9.81
2022-10-23T00:10:54.765Z,9.81
2022-10-23T00:11:54.817Z,9.82
2022-10-23T00:12:54.866Z,9.85
2022-10-23T00:13:54.896Z,9.85
2022-10-23T00:14:54.936Z,9.87
2022-10-23T00:15:54.984Z,9.85
2022-10-23T00:16:55.016Z,9.88
2022-10-23T00:17:55.066Z,9.90
2022-10-23T00:18:55.116Z,9.95
2022-10-23T00:19:55.137Z,9.97
2022-10-23T00:20:55.177Z,9.97
2022-10-23T00:21:55.245Z,9.99
2022-10-23T00:22:55.217Z,10.00
2022-10-23T00:23:55.291Z,10.03
2022-10-23T00:24:55.178Z,10.07
2022-10-23T00:25:55.179Z,10.06
2022-10-23T00:26:55.169Z,10.05
2022-10-23T00:27:55.159Z,10.00
2022-10-23T00:28:55.229Z,10.05
2022-10-23T00:29:55.239Z,10.05
2022-10-23T00:30:55.221Z,10.03
2022-10-23T00:31:55.270Z,9.99
2022-10-23T00:32:55.318Z,9.97
2022-10-23T00:33:55.351Z,9.94
2022-10-23T00:34:55.402Z,9.87
2022-10-23T00:35:55.439Z,9.82
2022-10-23T00:36:56.420Z,9.80
2022-10-23T00:37:55.526Z,9.77
2022-10-23T00:38:55.559Z,9.74
2022-10-23T00:39:55.593Z,9.76
2022-10-23T00:40:55.626Z,9.77
2022-10-23T00:41:55.685Z,9.81
2022-10-23T00:42:55.654Z,9.84
2022-10-23T00:43:55.722Z,9.85
2022-10-23T00:44:55.763Z,9.91
2022-10-23T00:45:55.804Z,9.94
2022-10-23T00:46:55.833Z,9.99
2022-10-23T00:47:55.854Z,10.00
2022-10-23T00:48:55.914Z,10.02
2022-10-23T00:49:55.915Z,10.02
2022-10-23T00:50:55.928Z,10.03
2022-10-23T00:51:55.929Z,10.03
2022-10-23T00:52:56.027Z,9.97
2022-10-23T00:54:01.203Z,9.95
2022-10-23T00:54:56.017Z,9.95
2022-10-23T00:55:56.089Z,10.00
2022-10-23T00:56:56.117Z,10.05
2022-10-23T00:57:56.165Z,10.07
2022-10-23T00:58:56.171Z,10.09
2022-10-23T00:59:56.186Z,10.07
2022-10-23T01:00:56.217Z,10.07
2022-10-23T01:01:56.375Z,10.09
2022-10-23T01:02:56.287Z,10.07
2022-10-23T01:03:56.312Z,10.03
2022-10-23T01:04:56.331Z,10.00
2022-10-23T01:05:56.323Z,10.00
2022-10-23T01:06:56.299Z,9.95
2022-10-23T01:07:56.367Z,9.92
2022-10-23T01:08:56.433Z,9.88
2022-10-23T01:09:56.433Z,9.82
2022-10-23T01:10:56.388Z,9.77
2022-10-23T01:11:56.437Z,9.73
2022-10-23T01:12:56.411Z,9.69
2022-10-23T01:13:56.515Z,9.63
2022-10-23T01:14:56.469Z,9.62
2022-10-23T01:15:56.522Z,9.62
2022-10-23T01:16:56.552Z,9.64
2022-10-23T01:17:56.601Z,9.64
2022-10-23T01:18:56.680Z,9.63
2022-10-23T01:19:56.660Z,9.63
2022-10-23T01:20:56.695Z,9.63
2022-10-23T01:21:56.733Z,9.63
2022-10-23T01:22:56.843Z,9.63
2022-10-23T01:23:56.827Z,9.62
2022-10-23T01:24:56.870Z,9.59
2022-10-23T01:25:56.924Z,9.63
2022-10-23T01:26:56.954Z,9.64
2022-10-23T01:27:56.985Z,9.63
2022-10-23T01:28:57.037Z,9.62
2022-10-23T01:29:57.085Z,9.59
2022-10-23T01:30:57.115Z,9.56
2022-10-23T01:31:57.143Z,9.55
2022-10-23T01:32:57.165Z,9.54
2022-10-23T01:33:57.212Z,9.54
2022-10-23T01:34:57.304Z,9.51
2022-10-23T01:35:57.277Z,9.49
2022-10-23T01:36:57.396Z,9.48
2022-10-23T01:37:57.350Z,9.47
2022-10-23T01:38:57.469Z,9.48
2022-10-23T01:39:57.507Z,9.48
2022-10-23T01:40:57.479Z,9.47
2022-10-23T01:41:57.539Z,9.47
2022-10-23T01:42:57.580Z,9.42
2022-10-23T01:43:57.628Z,9.42
2022-10-23T01:44:57.697Z,9.40
2022-10-23T01:45:57.688Z,9.40
2022-10-23T01:46:57.761Z,9.42
2022-10-23T01:47:57.762Z,9.40
2022-10-23T01:48:57.797Z,9.39
2022-10-23T01:49:57.834Z,9.37
2022-10-23T01:50:57.852Z,9.36
2022-10-23T01:51:57.908Z,9.36
2022-10-23T01:52:57.968Z,9.31
2022-10-23T01:53:58.034Z,9.34
2022-10-23T01:54:58.010Z,9.34
2022-10-23T01:55:58.041Z,9.33
2022-10-23T01:56:58.091Z,9.34
2022-10-23T01:57:58.147Z,9.36
2022-10-23T01:58:58.182Z,9.37
2022-10-23T01:59:58.214Z,9.34
2022-10-23T02:00:58.295Z,9.31
2022-10-23T02:01:58.328Z,9.29
2022-10-23T02:02:58.320Z,9.27
2022-10-23T02:04:58.403Z,9.29
2022-10-23T02:05:58.435Z,9.26
2022-10-23T02:06:59.305Z,9.30
2022-10-23T02:07:58.493Z,9.31
2022-10-23T02:08:58.528Z,9.33
2022-10-23T02:09:58.554Z,9.30
2022-10-23T02:10:58.594Z,9.26
2022-10-23T02:11:58.634Z,9.21
2022-10-23T02:12:58.660Z,9.18
2022-10-23T02:13:58.695Z,9.13
2022-10-23T02:14:58.735Z,9.13
2022-10-23T02:15:58.856Z,9.13
2022-10-23T02:16:58.808Z,9.16
2022-10-23T02:17:58.846Z,9.22
2022-10-23T02:18:58.877Z,9.31
2022-10-23T02:19:58.929Z,9.34
2022-10-23T02:20:58.974Z,9.34
2022-10-23T02:21:59.008Z,9.34
2022-10-23T02:22:59.049Z,9.34
2022-10-23T02:23:59.101Z,9.33
2022-10-23T02:24:59.141Z,9.36
2022-10-23T02:25:59.169Z,9.37
2022-10-23T02:26:59.207Z,9.34
2022-10-23T02:27:59.239Z,9.33
2022-10-23T02:28:59.341Z,9.31
2022-10-23T02:29:59.325Z,9.31
2022-10-23T02:30:59.350Z,9.31
2022-10-23T02:31:59.383Z,9.33
2022-10-23T02:32:59.414Z,9.33
2022-10-23T02:33:59.460Z,9.37
2022-10-23T02:34:59.491Z,9.39
2022-10-23T02:35:59.533Z,9.44
2022-10-23T02:36:59.560Z,9.42
2022-10-23T02:37:59.590Z,9.39
2022-10-23T02:38:59.661Z,9.37
2022-10-23T02:39:59.680Z,9.37
2022-10-23T02:40:59.834Z,9.33
2022-10-23T02:41:59.835Z,9.31
2022-10-23T02:42:59.872Z,9.30
2022-10-23T02:44:01.553Z,9.27
2022-10-23T02:44:59.883Z,9.24
2022-10-23T02:45:59.828Z,9.21
2022-10-23T02:46:59.896Z,9.21
2022-10-23T02:47:59.938Z,9.22
2022-10-23T02:48:59.937Z,9.24
2022-10-23T02:49:59.964Z,9.22
2022-10-23T02:51:00.019Z,9.24
2022-10-23T02:52:00.082Z,9.22
2022-10-23T02:53:00.121Z,9.21
2022-10-23T02:54:00.254Z,9.18
2022-10-23T02:55:00.196Z,9.18
2022-10-23T02:56:00.238Z,9.12
2022-10-23T02:57:00.297Z,9.12
2022-10-23T02:58:00.325Z,9.11
2022-10-23T02:59:00.355Z,9.11
2022-10-23T03:00:00.497Z,9.08
2022-10-23T03:01:00.478Z,9.05
2022-10-23T03:02:00.635Z,9.02
2022-10-23T03:03:00.460Z,8.99
2022-10-23T03:04:00.477Z,8.99
2022-10-23T03:05:00.519Z,8.99
2022-10-23T03:06:00.547Z,8.97
2022-10-23T03:07:00.593Z,9.02
2022-10-23T03:08:00.620Z,9.00
2022-10-23T03:09:00.660Z,8.99
2022-10-23T03:10:00.699Z,8.96
2022-10-23T03:11:00.740Z,8.95
2022-10-23T03:12:00.797Z,8.96
2022-10-23T03:13:00.840Z,8.93
2022-10-23T03:14:00.892Z,8.92
2022-10-23T03:15:00.938Z,8.89
2022-10-23T03:16:00.978Z,8.87
2022-10-23T03:17:01.029Z,8.86
2022-10-23T03:18:01.058Z,8.86
2022-10-23T03:19:01.120Z,8.84
2022-10-23T03:20:01.079Z,8.86
2022-10-23T03:21:01.111Z,8.87
2022-10-23T03:22:01.166Z,8.89
2022-10-23T03:23:01.195Z,8.87
2022-10-23T03:24:01.243Z,8.86
2022-10-23T03:25:01.263Z,8.93
2022-10-23T03:26:01.322Z,8.90
2022-10-23T03:27:01.362Z,8.92
2022-10-23T03:28:01.402Z,8.89
2022-10-23T03:29:01.436Z,8.92
2022-10-23T03:30:01.504Z,8.89
2022-10-23T03:31:01.558Z,8.87
2022-10-23T03:32:01.574Z,8.86
2022-10-23T03:33:01.613Z,8.87
2022-10-23T03:34:04.025Z,8.96
2022-10-23T03:35:01.723Z,8.99
2022-10-23T03:36:01.765Z,8.99
2022-10-23T03:37:01.814Z,9.00
2022-10-23T03:38:01.845Z,9.02
2022-10-23T03:39:01.874Z,9.05
2022-10-23T03:40:01.912Z,9.08
2022-10-23T03:41:01.934Z,9.05
2022-10-23T03:42:01.974Z,9.08
2022-10-23T03:43:02.007Z,9.11
2022-10-23T03:44:02.102Z,9.11
2022-10-23T03:45:02.056Z,9.11
2022-10-23T03:46:02.086Z,9.13
2022-10-23T03:47:02.117Z,9.16
2022-10-23T03:48:02.168Z,9.13
2022-10-23T03:49:02.188Z,9.12
2022-10-23T03:50:02.208Z,9.09
2022-10-23T03:51:02.237Z,9.09
2022-10-23T03:52:02.259Z,9.09
2022-10-23T03:53:02.297Z,9.05
2022-10-23T03:54:02.538Z,9.05
2022-10-23T03:55:02.427Z,9.03
2022-10-23T03:56:02.468Z,9.00
2022-10-23T03:57:03.182Z,8.95
2022-10-23T03:58:02.570Z,8.87
2022-10-23T03:59:03.290Z,8.87
2022-10-23T04:00:02.737Z,8.90
2022-10-23T04:01:02.819Z,8.89
2022-10-23T04:02:02.906Z,8.90
2022-10-23T04:03:03.484Z,8.90
2022-10-23T04:04:02.889Z,8.97
2022-10-23T04:05:03.596Z,9.08
2022-10-23T04:06:03.759Z,9.15
2022-10-23T04:07:03.042Z,9.21
2022-10-23T04:08:03.011Z,9.29
2022-10-23T04:09:03.118Z,9.34
2022-10-23T04:10:03.084Z,9.37
2022-10-23T04:11:03.052Z,9.40
2022-10-23T04:12:03.205Z,9.45
2022-10-23T04:13:03.134Z,9.49
2022-10-23T04:14:03.263Z,9.49
2022-10-23T04:15:03.351Z,9.49
2022-10-23T04:16:03.244Z,9.47
2022-10-23T04:17:03.294Z,9.42
2022-10-23T04:18:03.344Z,9.42
2022-10-23T04:19:03.378Z,9.39
2022-10-23T04:20:03.404Z,9.37
2022-10-23T04:21:03.435Z,9.37
2022-10-23T04:22:03.484Z,9.34
2022-10-23T04:23:03.526Z,9.33
2022-10-23T04:24:03.566Z,9.30
2022-10-23T04:25:03.596Z,9.33
2022-10-23T04:26:04.306Z,9.34
2022-10-23T04:27:04.529Z,9.44
2022-10-23T04:28:03.916Z,9.51
2022-10-23T04:29:04.096Z,9.52
2022-10-23T04:30:03.850Z,9.51
2022-10-23T04:31:03.980Z,9.51
2022-10-23T04:32:04.008Z,9.48
2022-10-23T04:33:04.096Z,9.49
2022-10-23T04:34:04.042Z,9.48
2022-10-23T04:35:04.126Z,9.48
2022-10-23T04:36:04.138Z,9.44
2022-10-23T04:37:04.106Z,9.42
2022-10-23T04:38:04.149Z,9.42
2022-10-23T04:39:04.773Z,9.40
2022-10-23T04:40:04.220Z,9.37
2022-10-23T04:41:04.222Z,9.40
2022-10-23T04:42:04.243Z,9.37
2022-10-23T04:43:04.433Z,9.37
2022-10-23T04:44:04.349Z,9.36
2022-10-23T04:45:04.309Z,9.33
2022-10-23T04:46:04.294Z,9.29
2022-10-23T04:47:04.367Z,9.29
2022-10-23T04:48:04.373Z,9.31
2022-10-23T04:49:04.456Z,9.34
2022-10-23T04:50:04.425Z,9.36
2022-10-23T04:51:04.507Z,9.39
2022-10-23T04:52:04.517Z,9.49
2022-10-23T04:53:04.513Z,9.55
2022-10-23T04:54:04.603Z,9.59
2022-10-23T04:55:04.633Z,9.63
2022-10-23T04:56:04.623Z,9.66
2022-10-23T04:57:04.596Z,9.72
2022-10-23T04:58:04.657Z,9.74
2022-10-23T05:00:04.737Z,9.62
2022-10-23T05:01:04.826Z,9.51
2022-10-23T05:02:04.815Z,9.44
2022-10-23T05:03:04.846Z,9.33
2022-10-23T05:04:04.894Z,9.29
2022-10-23T05:05:04.925Z,9.22
2022-10-23T05:06:04.955Z,9.18
2022-10-23T05:07:05.005Z,9.13
2022-10-23T05:08:05.036Z,9.13
2022-10-23T05:09:05.135Z,9.13
2022-10-23T05:10:05.086Z,9.11
2022-10-23T05:11:05.119Z,9.26
2022-10-23T05:12:05.147Z,9.27
2022-10-23T05:13:05.196Z,9.22
2022-10-23T05:14:05.241Z,9.13
2022-10-23T05:15:05.298Z,9.08
2022-10-23T05:16:05.329Z,9.03
2022-10-23T05:17:05.367Z,9.03
2022-10-23T05:18:05.431Z,9.12
2022-10-23T05:19:05.399Z,9.13
2022-10-23T05:20:05.451Z,9.15
2022-10-23T05:21:05.489Z,9.13
2022-10-23T05:22:05.511Z,9.15
2022-10-23T05:23:05.539Z,9.16
2022-10-23T05:24:05.580Z,9.13
2022-10-23T05:25:05.610Z,9.12
2022-10-23T05:26:05.658Z,9.16
2022-10-23T05:27:05.710Z,9.18
2022-10-23T05:28:05.741Z,9.18
2022-10-23T05:29:05.823Z,9.15
2022-10-23T05:30:05.782Z,9.15
2022-10-23T05:31:05.816Z,9.13
2022-10-23T05:32:05.862Z,9.11
2022-10-23T05:33:05.889Z,9.08
2022-10-23T05:34:07.701Z,9.03
2022-10-23T05:35:05.914Z,9.00
2022-10-23T05:36:05.945Z,9.02
2022-10-23T05:37:06.281Z,9.09
2022-10-23T05:38:06.054Z,9.18
2022-10-23T05:39:06.094Z,9.21
2022-10-23T05:40:06.154Z,9.30
2022-10-23T05:41:06.173Z,9.33
2022-10-23T05:42:06.227Z,9.42
2022-10-23T05:43:06.236Z,9.47
2022-10-23T05:44:06.285Z,9.51
2022-10-23T05:45:06.343Z,9.66
2022-10-23T05:46:06.394Z,9.74
2022-10-23T05:47:06.447Z,9.80
2022-10-23T05:48:11.368Z,9.82
2022-10-23T05:49:06.498Z,9.90
2022-10-23T05:50:06.508Z,10.02
2022-10-23T05:51:06.534Z,10.06
2022-10-23T05:52:06.538Z,10.06
2022-10-23T05:53:06.565Z,10.09
2022-10-23T05:54:06.577Z,10.13
2022-10-23T05:55:06.587Z,10.17
2022-10-23T05:56:06.628Z,10.21
2022-10-23T05:57:06.695Z,10.27
2022-10-23T05:58:06.682Z,10.30
2022-10-23T05:59:06.728Z,10.31
2022-10-23T06:00:06.769Z,10.30
2022-10-23T06:01:06.945Z,10.25
2022-10-23T06:02:07.038Z,10.21
2022-10-23T06:03:06.929Z,10.18
2022-10-23T06:04:06.934Z,10.17
2022-10-23T06:05:06.920Z,10.15
2022-10-23T06:06:06.909Z,10.10
2022-10-23T06:07:06.921Z,10.06
2022-10-23T06:08:06.919Z,10.05
2022-10-23T06:09:06.909Z,10.05
2022-10-23T06:10:07.013Z,10.00
2022-10-23T06:11:06.989Z,9.99
2022-10-23T06:12:07.042Z,9.95
2022-10-23T06:13:07.092Z,9.94
2022-10-23T06:14:07.151Z,9.95
2022-10-23T06:15:07.223Z,9.95
2022-10-23T06:16:09.638Z,9.97
2022-10-23T06:17:07.292Z,9.99
2022-10-23T06:18:07.354Z,9.99
2022-10-23T06:19:07.643Z,9.97
2022-10-23T06:20:07.303Z,9.95
2022-10-23T06:21:07.305Z,9.92
2022-10-23T06:22:07.373Z,9.91
2022-10-23T06:23:07.435Z,9.90
2022-10-23T06:24:07.403Z,9.88
2022-10-23T06:25:07.438Z,9.88
2022-10-23T06:26:07.528Z,9.87
2022-10-23T06:27:07.494Z,9.87
2022-10-23T06:28:07.495Z,9.88
2022-10-23T06:29:07.505Z,9.91
2022-10-23T06:30:07.506Z,9.99
2022-10-23T06:31:07.567Z,10.00
2022-10-23T06:32:07.568Z,10.02
2022-10-23T06:33:07.578Z,10.03
2022-10-23T06:34:07.629Z,10.07
2022-10-23T06:35:07.629Z,10.12
2022-10-23T06:36:07.666Z,10.15
2022-10-23T06:37:07.720Z,10.17
2022-10-23T06:38:07.727Z,10.20
2022-10-23T06:39:07.761Z,10.23
2022-10-23T06:40:07.769Z,10.30
2022-10-23T06:41:07.829Z,10.39
2022-10-23T06:42:07.898Z,10.51
2022-10-23T06:43:07.939Z,10.62
2022-10-23T06:44:07.979Z,10.68
2022-10-23T06:45:08.019Z,10.71
2022-10-23T06:46:08.080Z,10.72
2022-10-23T06:47:08.168Z,10.76
2022-10-23T06:48:08.190Z,10.79
2022-10-23T06:49:08.217Z,10.79
2022-10-23T06:50:11.765Z,10.84
2022-10-23T06:51:08.308Z,10.90
2022-10-23T06:52:14.370Z,10.92
2022-10-23T06:53:08.371Z,11.02
2022-10-23T06:54:08.392Z,11.07
2022-10-23T06:55:08.411Z,11.19
2022-10-23T06:56:08.452Z,11.26
2022-10-23T06:57:08.502Z,11.34
2022-10-23T06:58:08.533Z,11.40
2022-10-23T06:59:08.563Z,11.41
2022-10-23T07:00:08.612Z,11.53
2022-10-23T07:01:08.773Z,11.65
2022-10-23T07:02:08.744Z,11.76
2022-10-23T07:03:08.784Z,11.78
2022-10-23T07:04:08.814Z,11.81
2022-10-23T07:05:11.357Z,11.88
2022-10-23T07:06:08.891Z,11.91
2022-10-23T07:07:08.965Z,11.96
2022-10-23T07:08:09.015Z,11.99
2022-10-23T07:09:09.015Z,12.07
2022-10-23T07:10:09.072Z,12.11
2022-10-23T07:11:09.068Z,12.14
2022-10-23T07:12:09.118Z,12.21
2022-10-23T07:13:09.145Z,12.26
2022-10-23T07:14:09.125Z,12.30
2022-10-23T07:15:09.209Z,12.33
2022-10-23T07:16:09.247Z,12.37
2022-10-23T07:17:09.238Z,12.44
2022-10-23T07:18:09.249Z,12.44
2022-10-23T07:19:09.308Z,12.47
2022-10-23T07:20:09.319Z,12.48
2022-10-23T07:21:09.399Z,12.51
2022-10-23T07:22:10.845Z,12.55
2022-10-23T07:23:09.399Z,12.61
2022-10-23T07:24:09.420Z,12.61
2022-10-23T07:25:09.419Z,12.62
2022-10-23T07:26:09.430Z,12.65
2022-10-23T07:27:09.430Z,12.69
2022-10-23T07:28:09.431Z,12.72
2022-10-23T07:29:09.431Z,12.75
2022-10-23T07:30:09.441Z,12.80
2022-10-23T07:31:09.524Z,12.83
2022-10-23T07:32:09.491Z,12.84
2022-10-23T07:33:09.543Z,12.86
2022-10-23T07:34:09.611Z,12.87
2022-10-23T07:35:09.673Z,12.91
2022-10-23T07:36:09.625Z,12.93
2022-10-23T07:37:09.663Z,12.94
2022-10-23T07:38:09.695Z,12.94
2022-10-23T07:39:09.676Z,12.95
2022-10-23T07:40:09.754Z,12.99
2022-10-23T07:41:12.269Z,13.02
2022-10-23T07:42:09.796Z,13.05
2022-10-23T07:43:09.786Z,13.05
2022-10-23T07:44:09.776Z,13.05
2022-10-23T07:45:09.757Z,13.13
2022-10-23T07:46:09.902Z,13.13
2022-10-23T07:47:09.856Z,13.19
2022-10-23T07:48:09.887Z,13.21
2022-10-23T07:49:09.877Z,13.28
2022-10-23T07:50:09.872Z,13.36
2022-10-23T07:51:09.878Z,13.39
2022-10-23T07:52:09.871Z,13.46
2022-10-23T07:53:09.870Z,13.52
2022-10-23T07:54:09.872Z,13.55
2022-10-23T07:55:09.882Z,13.57
2022-10-23T07:56:09.880Z,13.64
2022-10-23T07:57:09.893Z,13.68
2022-10-23T07:58:09.911Z,13.76
2022-10-23T07:59:09.939Z,13.87
2022-10-23T08:00:09.962Z,13.93
2022-10-23T08:01:10.031Z,13.93
2022-10-23T08:02:10.039Z,14.00
2022-10-23T08:03:10.052Z,14.08
2022-10-23T08:04:10.153Z,14.13
2022-10-23T08:05:10.182Z,14.08
2022-10-23T08:06:10.164Z,14.11
2022-10-23T08:07:10.243Z,14.13
2022-10-23T08:08:10.245Z,14.25
2022-10-23T08:09:10.244Z,14.22
2022-10-23T08:10:10.266Z,14.18
2022-10-23T08:11:10.255Z,14.18
2022-10-23T08:12:10.267Z,14.16
2022-10-23T08:13:10.266Z,14.20
2022-10-23T08:14:10.245Z,14.18
2022-10-23T08:15:10.256Z,14.22
2022-10-23T08:16:10.256Z,14.26
2022-10-23T08:17:10.282Z,14.28
2022-10-23T08:18:10.295Z,14.36
2022-10-23T08:19:10.317Z,14.44
2022-10-23T08:20:10.337Z,14.48
2022-10-23T08:21:10.349Z,14.53
2022-10-23T08:22:10.418Z,14.68
2022-10-23T08:23:10.519Z,14.82
2022-10-23T08:24:10.503Z,14.92
2022-10-23T08:25:10.622Z,14.90
2022-10-23T08:26:10.609Z,14.99
2022-10-23T08:27:10.651Z,15.08
2022-10-23T08:28:10.737Z,15.11
2022-10-23T08:29:10.711Z,15.08
2022-10-23T08:30:10.756Z,15.08
2022-10-23T08:31:10.793Z,15.19
2022-10-23T08:32:10.861Z,15.17
2022-10-23T08:33:10.885Z,15.07
2022-10-23T08:34:10.942Z,15.11
2022-10-23T08:35:10.921Z,15.10
2022-10-23T08:36:10.932Z,15.07
2022-10-23T08:37:10.923Z,15.02
2022-10-23T08:38:10.924Z,15.08
2022-10-23T08:39:10.914Z,15.07
2022-10-23T08:40:10.975Z,15.10
2022-10-23T08:41:11.033Z,15.14
2022-10-23T08:43:11.068Z,15.08
2022-10-23T08:44:11.775Z,15.10
2022-10-23T08:45:11.986Z,15.05
2022-10-23T08:46:12.187Z,15.04
2022-10-23T08:47:11.315Z,15.08
2022-10-23T08:48:12.047Z,15.10
2022-10-23T08:49:12.257Z,15.14
2022-10-23T08:50:11.976Z,15.12
2022-10-23T08:51:12.187Z,15.07
2022-10-23T08:52:14.064Z,15.05
2022-10-23T08:53:11.440Z,15.00
2022-10-23T08:54:11.449Z,15.05
2022-10-23T08:55:11.499Z,15.00
2022-10-23T08:56:11.550Z,15.00
2022-10-23T08:57:11.592Z,15.05
2022-10-23T08:58:11.621Z,15.08
2022-10-23T08:59:11.633Z,15.12
2022-10-23T09:00:11.671Z,15.18
2022-10-23T09:01:11.780Z,15.25
2022-10-23T09:02:11.779Z,15.26
2022-10-23T09:03:11.787Z,15.27
2022-10-23T09:04:11.783Z,15.29
2022-10-23T09:05:11.783Z,15.36
2022-10-23T09:06:11.834Z,15.30
2022-10-23T09:07:11.895Z,15.32
2022-10-23T09:08:11.984Z,15.32
2022-10-23T09:09:11.985Z,15.30
2022-10-23T09:10:12.034Z,15.33
2022-10-23T09:11:12.015Z,15.35
2022-10-23T09:12:12.074Z,15.33
2022-10-23T09:13:12.075Z,15.29
2022-10-23T09:14:12.160Z,15.36
2022-10-23T09:15:12.227Z,15.35
2022-10-23T09:16:12.146Z,15.33
2022-10-23T09:17:12.197Z,15.37
2022-10-23T09:18:12.248Z,15.32
2022-10-23T09:19:12.297Z,15.29
2022-10-23T09:20:12.349Z,15.30
2022-10-23T09:21:12.383Z,15.26
2022-10-23T09:22:12.398Z,15.26
2022-10-23T09:23:12.439Z,15.22
2022-10-23T09:24:12.479Z,15.19
2022-10-23T09:25:12.519Z,15.17
2022-10-23T09:26:12.520Z,15.17
2022-10-23T09:27:12.521Z,15.22
2022-10-23T09:28:12.562Z,15.27
2022-10-23T09:29:12.611Z,15.29
2022-10-23T09:30:12.621Z,15.32
2022-10-23T09:31:12.663Z,15.26
2022-10-23T09:32:12.722Z,15.30
2022-10-23T09:33:12.813Z,15.23
2022-10-23T09:34:12.852Z,15.26
2022-10-23T09:35:12.884Z,15.29
2022-10-23T09:36:12.924Z,15.30
2022-10-23T09:37:12.953Z,15.29
2022-10-23T09:38:13.014Z,15.26
2022-10-23T09:39:13.051Z,15.27
2022-10-23T09:40:13.086Z,15.35
2022-10-23T09:41:13.076Z,15.41
2022-10-23T09:42:13.136Z,15.48
2022-10-23T09:43:13.177Z,15.54
2022-10-23T09:44:13.156Z,15.66
2022-10-23T09:45:13.147Z,15.78
2022-10-23T09:46:13.172Z,15.94
2022-10-23T09:47:13.177Z,15.92
2022-10-23T09:48:13.247Z,15.98
2022-10-23T09:49:13.265Z,15.96
2022-10-23T09:50:13.249Z,16.05
2022-10-23T09:51:13.289Z,16.18
2022-10-23T09:52:13.260Z,16.46
2022-10-23T09:53:13.309Z,16.76
2022-10-23T09:54:13.370Z,16.69
2022-10-23T09:55:13.420Z,16.66
2022-10-23T09:56:13.480Z,16.59
2022-10-23T09:57:13.451Z,16.44
2022-10-23T09:58:13.510Z,16.29
2022-10-23T09:59:13.579Z,16.29
2022-10-23T10:00:13.631Z,16.29
2022-10-23T10:01:13.792Z,16.37
2022-10-23T10:02:13.781Z,16.31
2022-10-23T10:03:13.642Z,16.25
2022-10-23T10:04:13.692Z,16.37
2022-10-23T10:05:13.683Z,16.44
2022-10-23T10:06:13.704Z,16.41
2022-10-23T10:07:13.754Z,16.44
2022-10-23T10:08:13.809Z,16.41
2022-10-23T10:09:13.855Z,16.40
2022-10-23T10:10:13.885Z,16.47
2022-10-23T10:11:13.915Z,16.69
2022-10-23T10:12:13.947Z,16.84
2022-10-23T10:13:15.011Z,17.10
2022-10-23T10:14:14.009Z,17.12
2022-10-23T10:15:14.017Z,17.07
2022-10-23T10:16:14.098Z,16.99
2022-10-23T10:17:14.100Z,16.84
2022-10-23T10:18:14.111Z,17.01
2022-10-23T10:19:14.152Z,17.20
2022-10-23T10:20:14.172Z,17.24
2022-10-23T10:21:14.160Z,17.14
2022-10-23T10:22:14.200Z,17.14
2022-10-23T10:23:14.271Z,17.12
2022-10-23T10:24:14.241Z,17.16
2022-10-23T10:25:14.310Z,17.19
2022-10-23T10:26:14.321Z,17.13
2022-10-23T10:27:14.313Z,17.20
2022-10-23T10:28:14.383Z,17.28
2022-10-23T10:29:14.375Z,17.41
2022-10-23T10:30:14.459Z,17.50
2022-10-23T10:31:14.431Z,17.54
2022-10-23T10:32:14.453Z,17.71
2022-10-23T10:33:14.485Z,17.78
2022-10-23T10:34:14.514Z,17.72
2022-10-23T10:35:14.505Z,17.72
2022-10-23T10:36:14.588Z,17.69
2022-10-23T10:37:14.550Z,17.69
2022-10-23T10:38:14.574Z,17.57
2022-10-23T10:39:14.653Z,17.44
2022-10-23T10:40:14.667Z,17.37
2022-10-23T10:41:14.675Z,17.37
2022-10-23T10:42:14.767Z,17.35
2022-10-23T10:43:14.796Z,17.22
2022-10-23T10:44:14.855Z,17.17
2022-10-23T10:45:15.352Z,17.14
2022-10-23T10:47:17.217Z,17.24
2022-10-23T10:48:14.930Z,17.22
2022-10-23T10:49:14.994Z,17.13
2022-10-23T10:50:15.191Z,17.01
2022-10-23T10:51:15.051Z,16.94
2022-10-23T10:52:15.082Z,16.95
2022-10-23T10:53:15.132Z,17.05
2022-10-23T10:54:15.102Z,17.14
2022-10-23T10:55:15.120Z,17.31
2022-10-23T10:56:15.157Z,17.31
2022-10-23T10:57:15.163Z,17.39
2022-10-23T10:58:15.234Z,17.46
2022-10-23T10:59:15.265Z,17.34
2022-10-23T11:00:15.396Z,17.32
2022-10-23T11:01:15.499Z,17.23
2022-10-23T11:02:15.525Z,17.23
2022-10-23T11:03:15.505Z,17.22
2022-10-23T11:04:15.514Z,17.37
2022-10-23T11:05:15.556Z,17.47
2022-10-23T11:06:15.548Z,17.38
2022-10-23T11:07:15.619Z,17.39
2022-10-23T11:08:15.641Z,17.44
2022-10-23T11:09:20.196Z,17.47
2022-10-23T11:10:15.698Z,17.46
2022-10-23T11:11:15.709Z,17.50
2022-10-23T11:12:15.749Z,17.59
2022-10-23T11:13:15.825Z,17.69
2022-10-23T11:14:15.849Z,17.71
2022-10-23T11:15:15.920Z,17.73
2022-10-23T11:16:15.910Z,17.73
2022-10-23T11:17:16.671Z,17.72
2022-10-23T11:18:15.933Z,17.66
2022-10-23T11:19:15.993Z,17.76
2022-10-23T11:20:15.985Z,17.93
2022-10-23T11:21:15.982Z,17.95
2022-10-23T11:22:15.993Z,18.05
2022-10-23T11:23:16.012Z,18.13
2022-10-23T11:24:16.045Z,18.13
2022-10-23T11:25:16.044Z,18.12
2022-10-23T11:26:19.582Z,18.13
2022-10-23T11:27:16.138Z,18.06
2022-10-23T11:28:16.126Z,18.19
2022-10-23T11:29:16.175Z,18.37
2022-10-23T11:30:16.237Z,18.27
2022-10-23T11:31:16.248Z,18.45
2022-10-23T11:32:16.277Z,18.60
2022-10-23T11:33:16.281Z,18.51
2022-10-23T11:34:16.288Z,18.45
2022-10-23T11:35:16.339Z,18.39
2022-10-23T11:36:16.319Z,18.31
2022-10-23T11:37:16.290Z,18.23
2022-10-23T11:38:16.304Z,18.13
2022-10-23T11:39:16.339Z,18.11
2022-10-23T11:40:16.374Z,18.13
2022-10-23T11:41:16.415Z,18.11
2022-10-23T11:42:16.565Z,18.02
2022-10-23T11:43:16.442Z,18.03
2022-10-23T11:44:16.502Z,18.00
2022-10-23T11:45:16.512Z,17.94
2022-10-23T11:46:16.593Z,17.94
2022-10-23T11:47:16.583Z,17.88
2022-10-23T11:48:16.622Z,17.82
2022-10-23T11:49:16.642Z,17.80
2022-10-23T11:50:16.644Z,17.82
2022-10-23T11:51:16.696Z,17.78
2022-10-23T11:52:16.724Z,17.76
2022-10-23T11:53:17.344Z,17.75
2022-10-23T11:54:16.696Z,17.82
2022-10-23T11:55:16.706Z,17.84
2022-10-23T11:56:16.706Z,17.91
2022-10-23T11:57:16.737Z,17.90
2022-10-23T11:58:16.748Z,17.87
2022-10-23T11:59:16.745Z,17.87
2022-10-23T12:00:16.772Z,17.86
2022-10-23T12:01:16.868Z,17.88
2022-10-23T12:02:16.871Z,17.90
2022-10-23T12:03:16.816Z,17.98
2022-10-23T12:04:16.819Z,17.95
2022-10-23T12:05:16.889Z,17.90
2022-10-23T12:06:16.880Z,17.98
2022-10-23T12:07:16.871Z,18.08
2022-10-23T12:08:16.940Z,18.09
2022-10-23T12:09:16.984Z,18.05
2022-10-23T12:10:17.072Z,18.08
2022-10-23T12:11:17.101Z,18.00
2022-10-23T12:12:17.085Z,17.98
2022-10-23T12:13:17.161Z,17.97
2022-10-23T12:14:17.155Z,18.06
2022-10-23T12:15:17.208Z,18.08
2022-10-23T12:16:17.203Z,18.06
2022-10-23T12:17:17.214Z,18.00
2022-10-23T12:18:17.244Z,18.00
2022-10-23T12:19:17.255Z,18.08
2022-10-23T12:20:17.346Z,17.94
2022-10-23T12:21:17.406Z,17.94
2022-10-23T12:22:17.531Z,17.91
2022-10-23T12:23:17.356Z,17.82
2022-10-23T12:24:17.387Z,17.80
2022-10-23T12:25:17.386Z,17.79
2022-10-23T12:26:17.447Z,17.82
2022-10-23T12:27:17.488Z,17.78
2022-10-23T12:28:17.509Z,17.72
2022-10-23T12:29:17.518Z,17.65
2022-10-23T12:30:17.528Z,17.63
2022-10-23T12:31:17.592Z,17.65
2022-10-23T12:32:17.593Z,17.65
2022-10-23T12:33:17.563Z,17.59
2022-10-23T12:34:17.619Z,17.52
2022-10-23T12:35:17.672Z,17.49
2022-10-23T12:36:17.741Z,17.54
2022-10-23T12:37:17.782Z,17.57
2022-10-23T12:38:17.760Z,17.53
2022-10-23T12:40:17.805Z,17.47
2022-10-23T12:41:17.825Z,17.46
2022-10-23T12:42:17.863Z,17.44
2022-10-23T12:43:17.884Z,17.42
2022-10-23T12:44:17.873Z,17.42
2022-10-23T12:45:17.896Z,17.42
2022-10-23T12:46:17.972Z,17.42
2022-10-23T12:47:17.936Z,17.42
2022-10-23T12:48:17.926Z,17.39
2022-10-23T12:49:17.986Z,17.39
2022-10-23T12:50:17.986Z,17.41
2022-10-23T12:51:18.047Z,17.41
2022-10-23T12:52:18.078Z,17.38
2022-10-23T12:53:18.137Z,17.39
2022-10-23T12:54:18.167Z,17.38
2022-10-23T12:55:18.208Z,17.38
2022-10-23T12:56:18.219Z,17.39
2022-10-23T12:57:18.263Z,17.39
2022-10-23T12:58:18.295Z,17.41
2022-10-23T12:59:18.349Z,17.41
2022-10-23T13:00:18.350Z,17.46
2022-10-23T13:01:18.442Z,17.41
2022-10-23T13:02:18.495Z,17.38
2022-10-23T13:03:18.478Z,17.35
2022-10-23T13:05:18.451Z,17.35
2022-10-23T13:06:18.473Z,17.42
2022-10-23T13:07:18.469Z,17.44
2022-10-23T13:08:18.523Z,17.47
2022-10-23T13:09:18.593Z,17.38
2022-10-23T13:10:18.614Z,17.34